Adrian, North Dakota
Current Conditions -  °F | °C
As of 11:56 AM on Thursday 29 Jan 2015 (Local Time) from KJMS Reporting Station
Light Snow Light Snow  
Wind Chill:   Ceiling: 1800
Heat Index: 19°   Visibility: 5mi
Dew Point: 12°   Wind: 16mph
Humidity: 74%   Direction: 330°NNW
Pressure: 30.48"   Gusts: 23mph
Location:  46.6526°N, 98.6214°W
Report Text: KJMS 291756Z AUTO 33014G20KT 5SM -SN OVC018 M07/M11 A3048 RMK AO2 SLP347 P0000 60000 T10721111 11033 21072 51023
Loading
Personal Weather Stations






























Interactive Weather Map New forecast layout! Learn more

10-Day Weather Forecast

Advertisements
Track Severe Weather on mobile